createdAt,value
2022-11-30T00:01:23.201Z,5.55
2022-11-30T00:03:54.532Z,6.25
2022-11-30T00:06:23.872Z,5.47
2022-11-30T00:08:54.036Z,5.78
2022-11-30T00:11:24.668Z,5.40
2022-11-30T00:13:52.914Z,5.25
2022-11-30T00:16:20.783Z,5.78
2022-11-30T00:18:48.760Z,5.78
2022-11-30T00:21:17.095Z,5.20
2022-11-30T00:23:47.123Z,5.18
2022-11-30T00:26:17.964Z,5.90
2022-11-30T00:28:47.799Z,5.60
2022-11-30T00:31:17.756Z,5.93
2022-11-30T00:33:45.814Z,6.05
2022-11-30T00:36:15.719Z,6.38
2022-11-30T00:38:44.047Z,6.63
2022-11-30T00:41:12.261Z,6.38
2022-11-30T00:43:40.210Z,5.75
2022-11-30T00:46:10.241Z,6.15
2022-11-30T00:48:38.717Z,5.82
2022-11-30T00:51:07.553Z,5.95
2022-11-30T00:53:35.825Z,5.95
2022-11-30T00:56:03.651Z,6.10
2022-11-30T00:58:31.482Z,5.93
2022-11-30T01:00:59.405Z,5.90
2022-11-30T01:03:28.770Z,5.90
2022-11-30T01:05:56.558Z,5.95
2022-11-30T01:08:25.625Z,6.28
2022-11-30T01:10:53.767Z,6.38
2022-11-30T01:13:21.589Z,6.80
2022-11-30T01:15:49.487Z,5.45
2022-11-30T01:18:19.021Z,6.22
2022-11-30T01:20:48.244Z,6.20
2022-11-30T01:23:16.030Z,6.50
2022-11-30T01:25:43.817Z,6.03
2022-11-30T01:28:11.905Z,5.03
2022-11-30T01:30:39.981Z,5.65
2022-11-30T01:33:07.786Z,5.53
2022-11-30T01:35:35.667Z,6.32
2022-11-30T01:38:05.191Z,5.72
2022-11-30T01:40:32.944Z,6.55
2022-11-30T01:43:00.777Z,5.75
2022-11-30T01:45:28.823Z,6.45
2022-11-30T01:47:58.465Z,6.05
2022-11-30T01:50:31.560Z,6.43
2022-11-30T01:53:00.011Z,5.60
2022-11-30T01:55:33.717Z,5.95
2022-11-30T01:58:04.952Z,6.03
2022-11-30T02:00:33.590Z,5.78
2022-11-30T02:03:04.452Z,6.13
2022-11-30T02:05:34.666Z,5.63
2022-11-30T02:08:02.997Z,6.15
2022-11-30T02:10:35.604Z,6.15
2022-11-30T02:13:39.537Z,6.05
2022-11-30T02:16:19.318Z,6.35
2022-11-30T02:18:56.438Z,5.57
2022-11-30T02:21:30.254Z,5.70
2022-11-30T02:24:15.660Z,5.97
2022-11-30T02:26:59.343Z,7.35
2022-11-30T02:29:31.569Z,5.65
2022-11-30T02:32:06.196Z,6.07
2022-11-30T02:34:36.983Z,6.65
2022-11-30T02:37:08.135Z,6.57
2022-11-30T02:39:36.230Z,6.28
2022-11-30T02:42:04.166Z,6.45
2022-11-30T02:44:33.689Z,6.63
2022-11-30T02:47:11.313Z,6.10
2022-11-30T02:49:47.939Z,6.03
2022-11-30T02:52:16.476Z,6.72
2022-11-30T02:54:44.660Z,6.07
2022-11-30T02:57:12.895Z,6.22
2022-11-30T02:59:42.570Z,6.32
2022-11-30T03:02:10.454Z,5.85
2022-11-30T03:04:38.232Z,6.25
2022-11-30T03:07:08.366Z,6.20
2022-11-30T03:09:36.162Z,5.97
2022-11-30T03:12:04.534Z,6.25
2022-11-30T03:14:32.370Z,6.35
2022-11-30T03:17:01.710Z,5.85
2022-11-30T03:19:29.507Z,6.57
2022-11-30T03:21:57.352Z,6.00
2022-11-30T03:24:25.282Z,6.05
2022-11-30T03:26:54.031Z,6.18
2022-11-30T03:29:21.853Z,6.75
2022-11-30T03:31:49.812Z,6.07
2022-11-30T03:34:19.067Z,6.70
2022-11-30T03:36:47.324Z,6.30
2022-11-30T03:39:15.210Z,6.05
2022-11-30T03:41:43.169Z,6.30
2022-11-30T03:44:11.494Z,6.35
2022-11-30T03:46:39.365Z,6.03
2022-11-30T03:49:07.326Z,6.35
2022-11-30T03:51:36.731Z,6.35
2022-11-30T03:54:04.844Z,6.20
2022-11-30T03:56:32.667Z,6.28
2022-11-30T03:59:00.531Z,6.32
2022-11-30T04:01:28.587Z,6.43
2022-11-30T04:03:56.490Z,6.03
2022-11-30T04:06:24.904Z,6.15
2022-11-30T04:08:54.191Z,6.20
2022-11-30T04:11:22.030Z,5.63
2022-11-30T04:13:49.833Z,5.97
2022-11-30T04:16:17.697Z,6.40
2022-11-30T04:18:45.606Z,5.95
2022-11-30T04:21:13.583Z,6.75
2022-11-30T04:23:42.070Z,6.50
2022-11-30T04:26:14.647Z,5.90
2022-11-30T04:28:42.670Z,6.55
2022-11-30T04:31:10.639Z,5.80
2022-11-30T04:33:38.801Z,6.32
2022-11-30T04:36:08.857Z,6.53
2022-11-30T04:38:37.930Z,7.15
2022-11-30T04:41:09.062Z,5.32
2022-11-30T04:43:38.564Z,5.93
2022-11-30T04:46:07.665Z,6.43
2022-11-30T04:48:36.066Z,5.78
2022-11-30T04:51:05.853Z,6.30
2022-11-30T04:53:35.278Z,6.35
2022-11-30T04:56:06.959Z,6.55
2022-11-30T04:58:35.363Z,5.93
2022-11-30T05:01:04.631Z,6.05
2022-11-30T05:03:32.547Z,6.47
2022-11-30T05:06:00.432Z,6.68
2022-11-30T05:08:28.302Z,5.95
2022-11-30T05:10:56.735Z,6.35
2022-11-30T05:13:26.363Z,6.50
2022-11-30T05:15:54.607Z,6.38
2022-11-30T05:18:24.104Z,6.53
2022-11-30T05:20:54.088Z,6.45
2022-11-30T05:23:22.932Z,6.25
2022-11-30T05:25:51.143Z,6.22
2022-11-30T05:28:18.944Z,6.03
2022-11-30T05:30:47.079Z,5.70
2022-11-30T05:33:14.891Z,6.05
2022-11-30T05:35:44.733Z,5.43
2022-11-30T05:38:12.715Z,6.22
2022-11-30T05:40:40.757Z,6.60
2022-11-30T05:43:08.502Z,6.68
2022-11-30T05:45:36.299Z,6.50
2022-11-30T05:48:04.219Z,6.80
2022-11-30T05:50:32.713Z,7.25
2022-11-30T05:53:01.865Z,6.80
2022-11-30T05:55:32.319Z,7.22
2022-11-30T05:58:00.234Z,7.57
2022-11-30T06:00:28.727Z,7.57
2022-11-30T06:02:58.254Z,9.45
2022-11-30T06:05:26.817Z,8.88
2022-11-30T06:07:54.900Z,9.80
2022-11-30T06:10:25.329Z,11.18
2022-11-30T06:12:53.682Z,14.50
2022-11-30T06:15:21.451Z,14.60
2022-11-30T06:17:49.308Z,13.80
2022-11-30T06:20:17.320Z,13.90
2022-11-30T06:22:46.963Z,14.00
2022-11-30T06:25:15.434Z,15.35
2022-11-30T06:27:44.638Z,14.32
2022-11-30T06:30:13.774Z,9.75
2022-11-30T06:32:41.616Z,7.95
2022-11-30T06:35:10.187Z,8.27
2022-11-30T06:37:38.067Z,8.40
2022-11-30T06:40:07.969Z,8.10
2022-11-30T06:42:37.429Z,8.43
2022-11-30T06:45:08.116Z,10.38
2022-11-30T06:47:36.415Z,12.30
2022-11-30T06:50:05.167Z,11.63
2022-11-30T06:52:33.488Z,11.90
2022-11-30T06:55:01.552Z,12.65
2022-11-30T06:57:30.086Z,10.73
2022-11-30T06:59:58.363Z,10.05
2022-11-30T07:02:27.596Z,9.73
2022-11-30T07:04:55.354Z,9.70
2022-11-30T07:07:23.282Z,10.63
2022-11-30T07:09:51.064Z,10.38
2022-11-30T07:12:19.150Z,9.82
2022-11-30T07:14:47.326Z,10.43
2022-11-30T07:17:15.483Z,10.60
2022-11-30T07:19:44.891Z,10.50
2022-11-30T07:22:12.652Z,10.15
2022-11-30T07:24:57.843Z,12.05
2022-11-30T07:27:25.976Z,12.10
2022-11-30T07:29:53.907Z,11.20
2022-11-30T07:32:21.769Z,12.20
2022-11-30T07:34:51.062Z,13.30
2022-11-30T07:37:19.054Z,14.30
2022-11-30T07:39:46.958Z,12.35
2022-11-30T07:42:14.734Z,13.18
2022-11-30T07:44:42.651Z,12.45
2022-11-30T07:47:10.596Z,13.23
2022-11-30T07:49:39.757Z,12.25
2022-11-30T07:52:09.118Z,12.27
2022-11-30T07:54:36.990Z,12.27
2022-11-30T07:57:04.915Z,13.90
2022-11-30T07:59:32.729Z,13.75
2022-11-30T08:02:01.564Z,14.18
2022-11-30T08:04:29.507Z,13.45
2022-11-30T08:06:57.477Z,14.27
2022-11-30T08:09:26.701Z,16.70
2022-11-30T08:11:54.583Z,17.42
2022-11-30T08:14:22.402Z,17.52
2022-11-30T08:16:50.271Z,16.02
2022-11-30T08:19:18.062Z,17.05
2022-11-30T08:21:45.876Z,16.40
2022-11-30T08:24:14.220Z,16.50
2022-11-30T08:26:43.519Z,15.10
2022-11-30T08:29:11.838Z,14.68
2022-11-30T08:31:40.796Z,15.63
2022-11-30T08:34:11.221Z,15.68
2022-11-30T08:36:39.999Z,19.45
2022-11-30T08:39:09.666Z,18.33
2022-11-30T08:41:39.102Z,20.20
2022-11-30T08:44:08.663Z,21.08
2022-11-30T08:46:53.404Z,21.52
2022-11-30T08:49:23.492Z,16.05
2022-11-30T08:52:16.350Z,15.45
2022-11-30T08:54:45.728Z,14.88
2022-11-30T08:57:14.384Z,13.60
2022-11-30T08:59:44.018Z,16.80
2022-11-30T09:02:13.961Z,15.88
2022-11-30T09:04:42.296Z,16.58
2022-11-30T09:07:10.556Z,17.95
2022-11-30T09:09:39.737Z,18.85
2022-11-30T09:12:08.531Z,20.77
2022-11-30T09:14:36.431Z,22.50
2022-11-30T09:17:05.646Z,20.45
2022-11-30T09:19:33.554Z,20.25
2022-11-30T09:22:01.598Z,17.85
2022-11-30T09:24:29.450Z,19.38
2022-11-30T09:26:57.854Z,20.35
2022-11-30T09:29:25.780Z,19.65
2022-11-30T09:31:53.649Z,18.52
2022-11-30T09:34:22.985Z,20.75
2022-11-30T09:36:50.795Z,20.15
2022-11-30T09:39:18.651Z,18.30
2022-11-30T09:42:09.387Z,16.85
2022-11-30T09:44:48.041Z,17.92
2022-11-30T09:47:36.610Z,15.45
2022-11-30T09:50:13.815Z,15.95
2022-11-30T09:52:45.043Z,15.25
2022-11-30T09:55:17.827Z,15.85
2022-11-30T09:57:48.154Z,14.38
2022-11-30T10:00:19.107Z,14.15
2022-11-30T10:02:47.114Z,12.38
2022-11-30T10:05:18.941Z,14.75
2022-11-30T10:08:03.516Z,14.73
2022-11-30T10:10:40.131Z,14.57
2022-11-30T10:13:24.411Z,15.60
2022-11-30T10:16:04.840Z,13.95
2022-11-30T10:18:41.969Z,14.38
2022-11-30T10:21:23.925Z,16.40
2022-11-30T10:24:03.720Z,15.18
2022-11-30T10:26:35.220Z,16.55
2022-11-30T10:29:14.612Z,17.17
2022-11-30T10:31:44.505Z,13.82
2022-11-30T10:34:20.520Z,13.45
2022-11-30T10:36:55.490Z,12.02
2022-11-30T10:39:29.679Z,15.38
2022-11-30T10:42:03.635Z,11.43
2022-11-30T10:44:35.466Z,11.43
2022-11-30T10:47:08.930Z,10.35
2022-11-30T10:49:39.583Z,10.98
2022-11-30T10:52:12.588Z,12.27
2022-11-30T10:54:40.454Z,11.65
2022-11-30T10:57:08.961Z,13.50
2022-11-30T10:59:43.916Z,12.45
2022-11-30T11:02:38.553Z,12.77
2022-11-30T11:05:15.533Z,12.05
2022-11-30T11:07:52.134Z,9.48
2022-11-30T11:10:22.092Z,11.27
2022-11-30T11:12:51.301Z,10.40
2022-11-30T11:15:22.251Z,9.50
2022-11-30T11:17:50.544Z,8.93
2022-11-30T11:20:34.698Z,7.90
2022-11-30T11:23:05.250Z,8.10
2022-11-30T11:25:35.811Z,7.43
2022-11-30T11:28:09.138Z,7.05
2022-11-30T11:30:38.445Z,8.45
2022-11-30T11:33:21.048Z,6.57
2022-11-30T11:35:50.524Z,6.63
2022-11-30T11:38:25.604Z,6.28
2022-11-30T11:40:56.186Z,6.07
2022-11-30T11:43:26.599Z,6.53
2022-11-30T11:45:56.794Z,6.65
2022-11-30T11:48:31.800Z,7.18
2022-11-30T11:51:08.747Z,6.85
2022-11-30T11:53:53.724Z,6.85
2022-11-30T11:56:27.011Z,8.13
2022-11-30T11:58:59.875Z,9.85
2022-11-30T12:01:52.075Z,10.82
2022-11-30T12:04:43.776Z,10.27
2022-11-30T12:07:20.936Z,9.68
2022-11-30T12:10:02.506Z,8.85
2022-11-30T12:12:30.617Z,8.48
2022-11-30T12:14:58.504Z,10.05
2022-11-30T12:17:48.119Z,9.82
2022-11-30T12:20:25.891Z,10.05
2022-11-30T12:23:09.130Z,10.63
2022-11-30T12:25:42.720Z,10.10
2022-11-30T12:28:20.954Z,9.13
2022-11-30T12:30:58.857Z,10.18
2022-11-30T12:33:38.750Z,9.50
2022-11-30T12:36:17.638Z,10.23
2022-11-30T12:38:50.617Z,10.10
2022-11-30T12:41:36.474Z,9.73
2022-11-30T12:44:38.506Z,9.40
2022-11-30T12:47:22.227Z,9.90
2022-11-30T12:50:02.757Z,9.60
2022-11-30T12:52:41.173Z,9.27
2022-11-30T12:55:25.254Z,10.27
2022-11-30T12:58:00.991Z,10.60
2022-11-30T13:00:36.729Z,11.68
2022-11-30T13:03:30.732Z,13.02
2022-11-30T13:06:02.293Z,11.38
2022-11-30T13:08:35.927Z,11.07
2022-11-30T13:11:09.684Z,12.43
2022-11-30T13:13:47.686Z,14.38
2022-11-30T13:16:16.389Z,12.55
2022-11-30T13:18:44.600Z,14.45
2022-11-30T13:21:22.966Z,15.05
2022-11-30T13:24:00.943Z,16.42
2022-11-30T13:26:35.364Z,15.82
2022-11-30T13:29:24.651Z,16.88
2022-11-30T13:31:57.094Z,17.00
2022-11-30T13:34:28.062Z,20.67
2022-11-30T13:37:07.592Z,19.08
2022-11-30T13:39:47.297Z,19.90
2022-11-30T13:42:34.481Z,18.05
2022-11-30T13:48:31.440Z,23.40
2022-11-30T13:50:59.546Z,17.92
2022-11-30T13:53:34.075Z,17.27
2022-11-30T13:56:04.300Z,21.25
2022-11-30T13:58:32.861Z,21.48
2022-11-30T14:01:22.821Z,21.73
2022-11-30T14:04:36.523Z,19.88
2022-11-30T14:07:26.348Z,20.45
2022-11-30T14:10:00.303Z,19.73
2022-11-30T14:12:59.919Z,16.80
2022-11-30T14:15:44.335Z,15.30
2022-11-30T14:18:21.662Z,17.95
2022-11-30T14:20:53.836Z,18.60
2022-11-30T14:23:27.751Z,16.42
2022-11-30T14:25:58.062Z,18.48
2022-11-30T14:28:32.303Z,19.52
2022-11-30T14:31:01.669Z,20.58
2022-11-30T14:33:41.316Z,18.52
2022-11-30T14:36:09.990Z,19.92
2022-11-30T14:38:42.835Z,18.67
2022-11-30T14:41:21.141Z,18.40
2022-11-30T14:44:07.829Z,19.05
2022-11-30T14:46:36.486Z,18.17
2022-11-30T14:49:23.038Z,18.52
2022-11-30T14:51:53.382Z,18.83
2022-11-30T14:54:38.805Z,16.83
2022-11-30T14:57:16.623Z,17.65
2022-11-30T14:59:50.953Z,16.45
2022-11-30T15:02:27.130Z,17.80
2022-11-30T15:04:56.401Z,17.40
2022-11-30T15:07:25.989Z,14.60
2022-11-30T15:10:01.428Z,18.40
2022-11-30T15:12:29.254Z,18.55
2022-11-30T15:15:13.768Z,16.33
2022-11-30T15:17:54.042Z,16.55
2022-11-30T15:20:30.046Z,15.82
2022-11-30T15:23:00.743Z,15.88
2022-11-30T15:25:38.174Z,16.95
2022-11-30T15:28:07.939Z,16.45
2022-11-30T15:30:39.604Z,16.88
2022-11-30T15:33:07.648Z,16.15
2022-11-30T15:35:57.409Z,17.08
2022-11-30T15:38:27.400Z,21.17
2022-11-30T15:41:04.787Z,16.67
2022-11-30T15:43:37.989Z,16.70
2022-11-30T15:46:07.060Z,16.85
2022-11-30T15:48:38.942Z,16.73
2022-11-30T15:51:07.878Z,17.38
2022-11-30T15:53:36.892Z,16.15
2022-11-30T15:56:08.385Z,18.83
2022-11-30T15:58:45.593Z,17.75
2022-11-30T16:01:17.015Z,19.58
2022-11-30T16:04:07.038Z,18.73
2022-11-30T16:06:45.116Z,22.05
2022-11-30T16:09:21.111Z,23.60
2022-11-30T16:11:54.205Z,19.38
2022-11-30T16:14:22.423Z,26.90
2022-11-30T16:16:53.020Z,20.75
2022-11-30T16:19:21.468Z,20.38
2022-11-30T16:21:50.966Z,28.45
2022-11-30T16:24:18.963Z,29.08
2022-11-30T16:26:51.431Z,29.73
2022-11-30T16:29:21.409Z,29.40
2022-11-30T16:31:49.342Z,24.95
2022-11-30T16:34:17.253Z,28.60
2022-11-30T16:36:45.068Z,36.08
2022-11-30T16:39:13.806Z,35.42
2022-11-30T16:41:41.574Z,34.05
2022-11-30T16:44:14.415Z,39.05
2022-11-30T16:46:43.793Z,42.67
2022-11-30T16:49:11.638Z,33.17
2022-11-30T16:51:41.816Z,38.67
2022-11-30T16:54:12.317Z,41.25
2022-11-30T16:56:40.174Z,47.22
2022-11-30T16:59:13.430Z,40.17
2022-11-30T17:01:48.098Z,39.72
2022-11-30T17:04:20.231Z,40.17
2022-11-30T17:06:50.920Z,42.03
2022-11-30T17:09:20.699Z,45.90
2022-11-30T17:11:50.799Z,42.70
2022-11-30T17:14:20.158Z,42.85
2022-11-30T17:16:49.589Z,36.05
2022-11-30T17:19:17.463Z,35.15
2022-11-30T17:21:45.813Z,34.75
2022-11-30T17:24:14.021Z,41.88
2022-11-30T17:26:42.006Z,36.28
2022-11-30T17:29:09.977Z,33.83
2022-11-30T17:31:38.040Z,34.15
2022-11-30T17:34:08.782Z,30.92
2022-11-30T17:36:36.647Z,31.27
2022-11-30T17:39:07.544Z,38.25
2022-11-30T17:41:35.419Z,30.08
2022-11-30T17:44:03.476Z,35.67
2022-11-30T17:46:31.472Z,30.48
2022-11-30T17:48:59.336Z,32.70
2022-11-30T17:51:29.138Z,36.08
2022-11-30T17:53:57.509Z,31.00
2022-11-30T17:56:25.981Z,32.47
2022-11-30T17:58:53.818Z,34.50
2022-11-30T18:01:23.361Z,42.38
2022-11-30T18:03:53.620Z,44.83
2022-11-30T18:06:21.520Z,45.20
2022-11-30T18:08:50.743Z,37.20
2022-11-30T18:11:20.342Z,35.85
2022-11-30T18:13:48.483Z,37.47
2022-11-30T18:16:19.339Z,32.65
2022-11-30T18:18:48.673Z,33.70
2022-11-30T18:21:19.283Z,33.95
2022-11-30T18:23:48.052Z,35.25
2022-11-30T18:26:20.028Z,32.45
2022-11-30T18:28:51.927Z,32.60
2022-11-30T18:31:19.845Z,32.95
2022-11-30T18:33:47.948Z,32.83
2022-11-30T18:36:15.907Z,34.15
2022-11-30T18:38:44.380Z,31.23
2022-11-30T18:41:12.192Z,26.02
2022-11-30T18:43:41.545Z,26.48
2022-11-30T18:46:11.276Z,26.92
2022-11-30T18:48:40.757Z,25.10
2022-11-30T18:51:13.378Z,30.80
2022-11-30T18:53:41.796Z,28.50
2022-11-30T18:56:11.320Z,24.13
2022-11-30T18:58:39.162Z,25.48
2022-11-30T19:01:10.294Z,25.88
2022-11-30T19:03:38.851Z,24.67
2022-11-30T19:06:08.914Z,24.55
2022-11-30T19:08:37.436Z,24.52
2022-11-30T19:11:06.095Z,22.88
2022-11-30T19:13:34.266Z,18.38
2022-11-30T19:16:02.961Z,17.40
2022-11-30T19:18:32.302Z,17.83
2022-11-30T19:21:02.728Z,19.52
2022-11-30T19:23:30.573Z,17.77
2022-11-30T19:26:01.635Z,17.20
2022-11-30T19:28:30.879Z,15.07
2022-11-30T19:31:01.200Z,17.17
2022-11-30T19:33:29.049Z,16.77
2022-11-30T19:36:03.156Z,16.38
2022-11-30T19:38:30.905Z,16.27
2022-11-30T19:40:58.843Z,15.18
2022-11-30T19:43:26.658Z,15.75
2022-11-30T19:45:55.068Z,17.92
2022-11-30T19:48:23.187Z,18.23
2022-11-30T19:50:51.313Z,20.23
2022-11-30T19:53:20.578Z,19.23
2022-11-30T19:55:48.337Z,20.63
2022-11-30T19:58:16.185Z,20.95
2022-11-30T20:00:46.538Z,22.48
2022-11-30T20:03:14.404Z,26.00
2022-11-30T20:05:49.112Z,25.23
2022-11-30T20:08:17.672Z,25.77
2022-11-30T20:10:46.895Z,24.27
2022-11-30T20:13:14.738Z,24.48
2022-11-30T20:15:42.739Z,24.88
2022-11-30T20:18:11.150Z,25.92
2022-11-30T20:20:38.967Z,24.00
2022-11-30T20:23:07.044Z,23.65
2022-11-30T20:25:35.318Z,21.50
2022-11-30T20:28:09.646Z,21.90
2022-11-30T20:30:40.178Z,23.08
2022-11-30T20:33:08.062Z,22.38
2022-11-30T20:35:36.179Z,24.23
2022-11-30T20:38:04.058Z,25.05
2022-11-30T20:40:31.834Z,23.80
2022-11-30T20:42:59.635Z,23.92
2022-11-30T20:45:29.107Z,23.00
2022-11-30T20:47:56.901Z,20.00
2022-11-30T20:50:24.715Z,17.60
2022-11-30T20:52:52.473Z,18.02
2022-11-30T20:55:20.330Z,19.00
2022-11-30T20:57:49.572Z,19.15
2022-11-30T21:00:18.319Z,18.02
2022-11-30T21:02:47.658Z,18.50
2022-11-30T21:05:18.915Z,19.83
2022-11-30T21:07:46.961Z,16.20
2022-11-30T21:10:14.847Z,16.63
2022-11-30T21:12:42.987Z,16.90
2022-11-30T21:15:11.677Z,16.70
2022-11-30T21:17:39.591Z,17.27
2022-11-30T21:20:10.172Z,16.55
2022-11-30T21:22:37.970Z,18.23
2022-11-30T21:25:06.813Z,18.30
2022-11-30T21:27:34.847Z,17.00
2022-11-30T21:30:02.724Z,18.23
2022-11-30T21:32:30.544Z,16.67
2022-11-30T21:34:58.471Z,17.02
2022-11-30T21:37:27.678Z,15.88
2022-11-30T21:39:55.481Z,16.42
2022-11-30T21:42:23.408Z,16.88
2022-11-30T21:44:51.875Z,17.88
2022-11-30T21:47:19.785Z,15.70
2022-11-30T21:49:47.741Z,15.77
2022-11-30T21:52:15.541Z,15.32
2022-11-30T21:54:44.813Z,14.68
2022-11-30T21:57:12.574Z,15.80
2022-11-30T21:59:40.408Z,15.52
2022-11-30T22:02:10.097Z,16.95
2022-11-30T22:04:38.232Z,17.13
2022-11-30T22:07:06.728Z,17.83
2022-11-30T22:09:34.582Z,17.60
2022-11-30T22:12:03.913Z,16.60
2022-11-30T22:14:31.800Z,17.60
2022-11-30T22:17:00.306Z,17.05
2022-11-30T22:19:28.274Z,16.80
2022-11-30T22:21:56.230Z,17.05
2022-11-30T22:24:24.196Z,15.40
2022-11-30T22:26:52.058Z,15.45
2022-11-30T22:29:24.205Z,16.95
2022-11-30T22:31:54.815Z,15.45
2022-11-30T22:34:22.794Z,15.57
2022-11-30T22:36:50.724Z,15.07
2022-11-30T22:39:20.161Z,14.13
2022-11-30T22:41:54.668Z,13.88
2022-11-30T22:44:26.789Z,14.68
2022-11-30T22:46:54.736Z,13.68
2022-11-30T22:49:22.879Z,13.38
2022-11-30T22:51:51.605Z,14.88
2022-11-30T22:54:19.964Z,13.90
2022-11-30T22:56:48.113Z,15.25
2022-11-30T22:59:16.660Z,16.13
2022-11-30T23:01:47.842Z,15.13
2022-11-30T23:04:17.661Z,15.65
2022-11-30T23:06:46.190Z,15.07
2022-11-30T23:09:16.228Z,14.18
2022-11-30T23:11:45.620Z,13.85
2022-11-30T23:14:15.988Z,12.45
2022-11-30T23:16:46.308Z,12.75
2022-11-30T23:19:14.815Z,12.65
2022-11-30T23:21:45.424Z,12.15
2022-11-30T23:24:20.217Z,12.88
2022-11-30T23:26:48.267Z,11.38
2022-11-30T23:29:17.748Z,12.57
2022-11-30T23:31:47.618Z,11.35
2022-11-30T23:34:17.301Z,12.60
2022-11-30T23:36:45.169Z,11.40
2022-11-30T23:39:14.889Z,11.05
2022-11-30T23:41:43.337Z,12.18
2022-11-30T23:44:11.962Z,12.10
2022-11-30T23:46:40.117Z,12.02
2022-11-30T23:49:09.400Z,11.20
2022-11-30T23:51:37.360Z,10.75
2022-11-30T23:54:05.525Z,11.27
2022-11-30T23:56:33.476Z,10.82
2022-11-30T23:59:01.219Z,11.80
